MMPQ

Details ICAO MMPQ
Name PALENQUE INTL
Region Mexico
Timezone America/Mexico_City (UTC-5.0)
Plans Departing 6
Arriving 6
Stats Elevation 200 ft / 61 m (AMSL)
Location 17.533431° -91.984517°
Runways 1
Magnetic Variation 1.400° E
Sunrise 2018-05-25 11:34:44 UTC / 2018-05-25 06:34:44 Local
Sunset 2018-05-26 00:37:57 UTC / 2018-05-25 19:37:57 Local
Advertisement - Login to hide

Runways

ID Width Length Bearing (true) Bearing (mag) Surface Threshold Offset Overrun Length
09 82 ft / 25 m 4,892 ft / 1,491 m 101.01° 99.61° Asphalt 0 ft / 0 m 0 ft / 0 m
27 82 ft / 25 m 4,892 ft / 1,491 m 281.02° 279.62° Asphalt 0 ft / 0 m 0 ft / 0 m

Map

Weather


0- 5 10 15 20 25 30 35+ Temperature / ° C

Clouds and Precipitation
Forecast for 2018-05-25 18:00 UTC. Updated 20 minutes ago

Ground ~20,000 ft ~40,000 ft Winds

METAR

MMPQ 251645Z 28010KT 6SM BKN040 30/23 A2978 RMK 8/500 HZY MSGTX MMMD

TAF

Not found
Warning: Do not use this data for real-world aviation or navigation. No guarantee of current accuracy is given.